createdAt,value
2024-05-09T00:04:50.362Z,101251.88
2024-05-09T00:09:55.110Z,101246.47
2024-05-09T00:14:59.751Z,101254.91
2024-05-09T00:20:14.338Z,101258.72
2024-05-09T00:25:25.086Z,101252.03
2024-05-09T00:30:34.577Z,101257.06
2024-05-09T00:35:44.302Z,101248.38
2024-05-09T00:40:49.043Z,101234.66
2024-05-09T00:45:55.001Z,101237.81
2024-05-09T00:51:02.470Z,101235.38
2024-05-09T00:56:08.162Z,101243.00
2024-05-09T01:01:13.476Z,101242.88
2024-05-09T01:06:22.658Z,101245.19
2024-05-09T01:11:27.327Z,101248.78
2024-05-09T01:16:32.012Z,101258.25
2024-05-09T01:21:43.234Z,101240.97
2024-05-09T01:26:50.689Z,101241.53
2024-05-09T01:31:59.177Z,101242.28
2024-05-09T01:37:03.933Z,101244.16
2024-05-09T01:42:11.266Z,101243.88
2024-05-09T01:47:15.966Z,101249.06
2024-05-09T01:52:20.824Z,101249.38
2024-05-09T01:57:28.312Z,101257.88
2024-05-09T02:02:33.200Z,101260.19
2024-05-09T02:07:38.094Z,101256.84
2024-05-09T02:12:45.774Z,101252.69
2024-05-09T02:17:50.840Z,101252.47
2024-05-09T02:22:57.444Z,101249.97
2024-05-09T02:28:04.935Z,101249.72
2024-05-09T02:33:11.684Z,101258.06
2024-05-09T02:38:18.285Z,101262.03
2024-05-09T02:43:25.797Z,101253.81
2024-05-09T02:48:30.586Z,101252.28
2024-05-09T02:53:35.484Z,101251.78
2024-05-09T02:58:42.917Z,101255.97
2024-05-09T03:03:50.382Z,101257.88
2024-05-09T03:08:55.181Z,101253.91
2024-05-09T03:14:02.721Z,101249.13
2024-05-09T03:19:07.735Z,101249.97
2024-05-09T03:24:13.885Z,101250.28
2024-05-09T03:29:21.615Z,101249.69
2024-05-09T03:34:26.330Z,101254.69
2024-05-09T03:39:31.154Z,101251.56
2024-05-09T03:44:38.461Z,101244.13
2024-05-09T03:49:43.208Z,101244.91
2024-05-09T03:54:49.212Z,101239.66
2024-05-09T03:59:56.479Z,101241.50
2024-05-09T04:05:01.231Z,101235.22
2024-05-09T04:10:08.907Z,101245.44
2024-05-09T04:15:16.389Z,101257.34
2024-05-09T04:20:32.347Z,101262.94
2024-05-09T04:25:45.344Z,101265.28
2024-05-09T04:30:53.137Z,101259.50
2024-05-09T04:35:57.834Z,101274.00
2024-05-09T04:41:02.598Z,101265.66
2024-05-09T04:46:10.081Z,101264.47
2024-05-09T04:51:14.867Z,101274.59
2024-05-09T04:56:19.602Z,101269.84
2024-05-09T05:01:26.917Z,101279.97
2024-05-09T05:06:31.712Z,101278.63
2024-05-09T05:11:36.434Z,101292.16
2024-05-09T05:16:43.768Z,101291.41
2024-05-09T05:21:48.420Z,101278.00
2024-05-09T05:26:53.278Z,101284.28
2024-05-09T05:32:00.818Z,101283.00
2024-05-09T05:37:05.718Z,101282.09
2024-05-09T05:42:10.462Z,101287.53
2024-05-09T05:47:17.848Z,101285.31
2024-05-09T05:52:22.648Z,101293.94
2024-05-09T05:57:27.398Z,101294.69
2024-05-09T06:02:36.062Z,101294.88
2024-05-09T06:07:40.743Z,101297.91
2024-05-09T06:12:45.362Z,101300.59
2024-05-09T06:17:52.859Z,101301.34
2024-05-09T06:22:57.599Z,101297.88
2024-05-09T06:28:02.662Z,101293.44
2024-05-09T06:33:14.998Z,101294.00
2024-05-09T06:38:21.216Z,101298.28
2024-05-09T06:43:26.110Z,101299.25
2024-05-09T06:48:33.661Z,101299.53
2024-05-09T06:53:43.577Z,101303.81
2024-05-09T06:58:49.352Z,101296.56
2024-05-09T07:03:56.908Z,101300.59
2024-05-09T07:09:01.593Z,101296.81
2024-05-09T07:14:07.296Z,101298.19
2024-05-09T07:19:15.050Z,101304.66
2024-05-09T07:24:20.174Z,101297.94
2024-05-09T07:29:24.878Z,101294.09
2024-05-09T07:34:32.168Z,101292.25
2024-05-09T07:39:36.927Z,101291.06
2024-05-09T07:44:41.683Z,101297.81
2024-05-09T07:51:32.644Z,101289.75
2024-05-09T07:55:14.617Z,101283.00
2024-05-09T08:00:26.783Z,101280.50
2024-05-09T08:05:38.192Z,101275.94
2024-05-09T08:10:43.031Z,101271.16
2024-05-09T08:15:47.739Z,101267.13
2024-05-09T08:20:55.070Z,101272.00
2024-05-09T08:25:59.854Z,101266.56
2024-05-09T08:31:07.003Z,101267.13
2024-05-09T08:36:14.935Z,101255.75
2024-05-09T08:41:19.717Z,101257.19
2024-05-09T08:46:24.707Z,101261.56
2024-05-09T08:51:32.197Z,101254.28
2024-05-09T08:56:37.782Z,101259.81
2024-05-09T09:01:44.469Z,101258.88
2024-05-09T09:06:56.559Z,101256.91
2024-05-09T09:12:02.606Z,101256.75
2024-05-09T09:17:15.451Z,101257.41
2024-05-09T09:22:22.865Z,101255.72
2024-05-09T09:27:27.816Z,101261.03
2024-05-09T09:32:32.789Z,101257.59
2024-05-09T09:37:40.824Z,101253.91
2024-05-09T09:42:46.801Z,101248.59
2024-05-09T09:47:51.959Z,101247.19
2024-05-09T09:53:00.347Z,101242.31
2024-05-09T09:58:09.582Z,101232.09
2024-05-09T10:03:16.777Z,101237.44
2024-05-09T10:08:26.142Z,101225.50
2024-05-09T10:13:36.053Z,101229.66
2024-05-09T10:18:41.835Z,101222.50
2024-05-09T10:23:59.925Z,101221.59
2024-05-09T10:29:15.510Z,101213.78
2024-05-09T10:34:21.244Z,101219.31
2024-05-09T10:39:28.661Z,101215.38
2024-05-09T10:44:33.315Z,101213.25
2024-05-09T10:49:38.369Z,101203.53
2024-05-09T10:54:45.786Z,101204.63
2024-05-09T10:59:53.162Z,101193.03
2024-05-09T11:04:57.985Z,101193.88
2024-05-09T11:10:12.526Z,101186.19
2024-05-09T11:15:19.306Z,101185.63
2024-05-09T11:20:29.518Z,101182.47
2024-05-09T11:25:37.543Z,101180.38
2024-05-09T11:30:42.241Z,101175.09
2024-05-09T11:35:47.384Z,101174.25
2024-05-09T11:40:54.946Z,101176.25
2024-05-09T11:46:00.356Z,101164.88
2024-05-09T11:51:05.104Z,101152.88
2024-05-09T11:56:15.442Z,101142.69
2024-05-09T12:01:21.019Z,101145.19
2024-05-09T12:06:26.832Z,101140.56
2024-05-09T12:11:34.488Z,101143.88
2024-05-09T12:16:40.137Z,101130.88
2024-05-09T12:21:45.269Z,101117.31
2024-05-09T12:26:52.750Z,101121.13
2024-05-09T12:31:57.578Z,101114.97
2024-05-09T12:37:02.375Z,101109.94
2024-05-09T12:42:12.456Z,101089.03
2024-05-09T12:47:17.699Z,101076.56
2024-05-09T12:52:22.500Z,101064.72
2024-05-09T12:57:29.967Z,101046.75
2024-05-09T13:02:34.782Z,101032.31
2024-05-09T13:07:39.760Z,101033.09
2024-05-09T13:12:49.294Z,101032.09
2024-05-09T13:17:56.370Z,101008.44
2024-05-09T13:23:04.835Z,101010.25
2024-05-09T13:46:55.139Z,100985.19
2024-05-09T13:51:59.814Z,100986.19
2024-05-09T13:57:04.608Z,100968.78
2024-05-09T14:02:12.020Z,100961.78
2024-05-09T14:07:17.076Z,100972.31
2024-05-09T14:12:21.850Z,100978.00
2024-05-09T14:17:29.372Z,100963.09
2024-05-09T14:22:35.740Z,100950.59
2024-05-09T14:27:40.630Z,100943.34
2024-05-09T14:32:49.227Z,100936.25
2024-05-09T14:37:54.628Z,100935.28
2024-05-09T14:43:02.565Z,100934.44
2024-05-09T14:48:11.489Z,100931.00
2024-05-09T14:53:16.562Z,100924.53
2024-05-09T14:58:22.426Z,100916.97
2024-05-09T15:03:30.330Z,100899.94
2024-05-09T15:08:35.743Z,100907.59
2024-05-09T15:13:40.802Z,100896.41
2024-05-09T15:18:48.631Z,100896.47
2024-05-09T15:23:53.897Z,100898.19
2024-05-09T15:28:59.019Z,100886.44
2024-05-09T15:34:08.436Z,100890.00
2024-05-09T15:39:13.623Z,100872.97
2024-05-09T15:44:18.654Z,100871.72
2024-05-09T15:49:26.481Z,100859.53
2024-05-09T15:54:31.790Z,100854.16
2024-05-09T15:59:36.529Z,100866.91
2024-05-09T16:04:44.447Z,100869.28
2024-05-09T16:09:50.005Z,100871.72
2024-05-09T16:14:55.367Z,100866.97
2024-05-09T16:20:06.807Z,100864.75
2024-05-09T16:25:13.753Z,100866.03
2024-05-09T16:30:27.798Z,100861.13
2024-05-09T16:35:42.145Z,100875.81
2024-05-09T16:40:47.364Z,100868.06
2024-05-09T16:45:53.782Z,100863.22
2024-05-09T16:51:01.295Z,100874.38
2024-05-09T16:56:06.602Z,100869.22
2024-05-09T17:01:13.658Z,100874.59
2024-05-09T17:06:21.352Z,100874.88
2024-05-09T17:11:26.243Z,100873.44
2024-05-09T17:16:31.471Z,100873.72
2024-05-09T17:21:39.176Z,100874.97
2024-05-09T17:26:45.980Z,100873.06
2024-05-09T17:31:50.711Z,100868.84
2024-05-09T17:36:58.148Z,100875.56
2024-05-09T17:42:02.835Z,100871.16
2024-05-09T17:47:08.041Z,100875.38
2024-05-09T17:52:15.688Z,100868.25
2024-05-09T17:57:20.420Z,100875.84
2024-05-09T18:02:25.134Z,100865.19
2024-05-09T18:07:32.596Z,100875.44
2024-05-09T18:12:37.299Z,100874.75
2024-05-09T18:17:42.681Z,100876.63
2024-05-09T18:22:49.964Z,100878.66
2024-05-09T18:27:54.784Z,100879.78
2024-05-09T18:32:59.554Z,100880.94
2024-05-09T18:44:15.539Z,100894.00
2024-05-09T18:49:20.607Z,100899.19
2024-05-09T18:54:28.013Z,100904.81
2024-05-09T18:59:32.666Z,100907.28
2024-05-09T19:04:37.467Z,100910.34
2024-05-09T19:09:45.121Z,100923.38
2024-05-09T19:14:49.811Z,100926.94
2024-05-09T19:19:55.099Z,100933.88
2024-05-09T19:25:02.579Z,100926.34
2024-05-09T19:30:17.405Z,100927.72
2024-05-09T19:35:29.054Z,100937.97
2024-05-09T19:40:36.744Z,100940.53
2024-05-09T19:45:41.601Z,100944.66
2024-05-09T19:50:48.309Z,100944.41
2024-05-09T19:55:58.476Z,100951.19
2024-05-09T20:01:03.276Z,100960.72
2024-05-09T20:06:08.224Z,100963.59
2024-05-09T20:11:17.428Z,100963.63
2024-05-09T20:16:22.187Z,100962.19
2024-05-09T20:21:27.073Z,100966.53
2024-05-09T20:26:34.518Z,100968.72
2024-05-09T20:31:41.303Z,100973.53
2024-05-09T20:36:45.983Z,100965.13
2024-05-09T20:41:53.448Z,100965.13
2024-05-09T20:47:00.612Z,100959.69
2024-05-09T20:52:05.723Z,100962.16
2024-05-09T20:57:13.166Z,100966.00
2024-05-09T21:02:18.220Z,100975.88
2024-05-09T21:07:23.238Z,100970.59
2024-05-09T21:12:30.633Z,100971.41
2024-05-09T21:17:35.585Z,100961.97
2024-05-09T21:22:41.118Z,100967.75
2024-05-09T21:27:48.501Z,100962.59
2024-05-09T21:32:53.309Z,100972.03
2024-05-09T21:37:57.940Z,100976.28
2024-05-09T21:43:05.546Z,100980.06
2024-05-09T21:48:11.268Z,100981.22
2024-05-09T21:53:16.666Z,100977.22
2024-05-09T21:58:24.035Z,100975.81
2024-05-09T22:03:28.873Z,100977.69
2024-05-09T22:08:33.611Z,100978.94
2024-05-09T22:13:41.154Z,100972.28
2024-05-09T22:18:46.024Z,100974.22
2024-05-09T22:23:50.851Z,100970.38
2024-05-09T22:28:58.092Z,100972.66
2024-05-09T22:34:02.932Z,100971.31
2024-05-09T22:39:08.428Z,100970.25
2024-05-09T22:44:15.671Z,100966.44
2024-05-09T22:49:20.284Z,100976.47
2024-05-09T22:54:25.048Z,100974.31
2024-05-09T22:59:32.535Z,100974.59
2024-05-09T23:04:37.518Z,100969.25
2024-05-09T23:09:42.239Z,100968.03
2024-05-09T23:14:49.895Z,100967.38
2024-05-09T23:19:54.672Z,100963.19
2024-05-09T23:24:59.448Z,100964.91
2024-05-09T23:30:12.011Z,100963.16
2024-05-09T23:35:17.332Z,100956.13
2024-05-09T23:40:23.487Z,100963.50
2024-05-09T23:45:34.494Z,100955.81
2024-05-09T23:50:40.567Z,100949.19
2024-05-09T23:55:45.888Z,100952.25
